Terminal Aerodrome Forecast
Issued by NWS Omaha/Valley, NE

Home | Current Version | Previous Version | Text Only | Print | Product List | Glossary On
Versions: 1 2 3 4 5 6 7 8 9 10 11 12 13 14 15 16 17 18 19 20 21 22 23 24 25 26 27 28 29 30 31 32
000
FTUS43 KOAX 100524
TAFLNK
TAF
KLNK 100524Z 1006/1106 15006KT P6SM -SHRA SCT040 OVC100
     FM100800 16007KT P6SM SCT040 OVC080
      TEMPO 1009/1013 4SM TSRA BKN040CB
     FM101300 16010KT P6SM -SHRA OVC050
     FM101700 17014G23KT P6SM BKN100
     FM110000 16012KT P6SM OVC150=

USA.gov is the U.S. government's official web portal to all federal, state and local government web resources and services.